sensor_id;sensor_type;location;lat;lon;timestamp;P1;durP1;ratioP1;P2;durP2;ratioP2
29902;SDS011;30288;50.514;9.678;2023-04-24T00:01:56;5.85;;;3.25;;
29902;SDS011;30288;50.514;9.678;2023-04-24T00:04:05;7.80;;;3.97;;
29902;SDS011;30288;50.514;9.678;2023-04-24T00:06:12;7.53;;;3.08;;
29902;SDS011;30288;50.514;9.678;2023-04-24T00:08:18;5.78;;;3.20;;
29902;SDS011;30288;50.514;9.678;2023-04-24T00:10:24;9.50;;;3.50;;
29902;SDS011;30288;50.514;9.678;2023-04-24T00:12:29;7.43;;;3.00;;
29902;SDS011;30288;50.514;9.678;2023-04-24T00:14:35;8.20;;;2.90;;
29902;SDS011;30288;50.514;9.678;2023-04-24T00:16:40;8.00;;;3.22;;
29902;SDS011;30288;50.514;9.678;2023-04-24T00:18:45;5.55;;;2.67;;
29902;SDS011;30288;50.514;9.678;2023-04-24T00:20:56;6.47;;;2.90;;
29902;SDS011;30288;50.514;9.678;2023-04-24T00:23:01;6.78;;;2.95;;
29902;SDS011;30288;50.514;9.678;2023-04-24T00:25:07;6.95;;;2.90;;
29902;SDS011;30288;50.514;9.678;2023-04-24T00:27:12;6.85;;;3.00;;
29902;SDS011;30288;50.514;9.678;2023-04-24T00:29:18;5.00;;;2.50;;
29902;SDS011;30288;50.514;9.678;2023-04-24T00:31:23;6.35;;;2.65;;
29902;SDS011;30288;50.514;9.678;2023-04-24T00:33:28;12.43;;;3.00;;
29902;SDS011;30288;50.514;9.678;2023-04-24T00:35:33;10.82;;;3.00;;
29902;SDS011;30288;50.514;9.678;2023-04-24T00:37:41;5.95;;;2.70;;
29902;SDS011;30288;50.514;9.678;2023-04-24T00:39:47;10.15;;;2.80;;
29902;SDS011;30288;50.514;9.678;2023-04-24T00:41:52;10.35;;;2.88;;
29902;SDS011;30288;50.514;9.678;2023-04-24T00:43:58;5.82;;;2.70;;
29902;SDS011;30288;50.514;9.678;2023-04-24T00:46:03;8.40;;;2.75;;
29902;SDS011;30288;50.514;9.678;2023-04-24T00:48:09;10.95;;;2.60;;
29902;SDS011;30288;50.514;9.678;2023-04-24T00:50:16;8.80;;;2.95;;
29902;SDS011;30288;50.514;9.678;2023-04-24T00:52:24;8.77;;;2.35;;
29902;SDS011;30288;50.514;9.678;2023-04-24T00:54:35;6.15;;;2.88;;
29902;SDS011;30288;50.514;9.678;2023-04-24T00:56:40;6.43;;;2.78;;
29902;SDS011;30288;50.514;9.678;2023-04-24T00:58:48;5.50;;;2.50;;
29902;SDS011;30288;50.514;9.678;2023-04-24T01:00:54;6.38;;;2.45;;
29902;SDS011;30288;50.514;9.678;2023-04-24T01:03:00;9.10;;;2.72;;
29902;SDS011;30288;50.514;9.678;2023-04-24T01:05:09;7.95;;;2.72;;
29902;SDS011;30288;50.514;9.678;2023-04-24T01:07:17;8.63;;;2.45;;
29902;SDS011;30288;50.514;9.678;2023-04-24T01:09:25;7.03;;;2.55;;
29902;SDS011;30288;50.514;9.678;2023-04-24T01:11:34;5.63;;;2.00;;
29902;SDS011;30288;50.514;9.678;2023-04-24T01:13:40;3.70;;;1.90;;
29902;SDS011;30288;50.514;9.678;2023-04-24T01:15:46;4.00;;;1.80;;
29902;SDS011;30288;50.514;9.678;2023-04-24T01:17:52;6.30;;;2.35;;
29902;SDS011;30288;50.514;9.678;2023-04-24T01:19:57;5.80;;;2.03;;
29902;SDS011;30288;50.514;9.678;2023-04-24T01:22:11;5.05;;;2.00;;
29902;SDS011;30288;50.514;9.678;2023-04-24T01:24:18;4.63;;;1.98;;
29902;SDS011;30288;50.514;9.678;2023-04-24T01:26:24;5.30;;;2.10;;
29902;SDS011;30288;50.514;9.678;2023-04-24T01:28:29;3.95;;;1.70;;
29902;SDS011;30288;50.514;9.678;2023-04-24T01:30:34;5.07;;;1.50;;
29902;SDS011;30288;50.514;9.678;2023-04-24T01:32:40;5.80;;;2.00;;
29902;SDS011;30288;50.514;9.678;2023-04-24T01:34:46;6.13;;;1.90;;
29902;SDS011;30288;50.514;9.678;2023-04-24T01:36:52;6.10;;;1.77;;
29902;SDS011;30288;50.514;9.678;2023-04-24T01:39:00;8.52;;;1.90;;
29902;SDS011;30288;50.514;9.678;2023-04-24T01:41:06;8.75;;;1.75;;
29902;SDS011;30288;50.514;9.678;2023-04-24T01:43:11;5.50;;;1.92;;
29902;SDS011;30288;50.514;9.678;2023-04-24T01:45:17;6.85;;;1.90;;
29902;SDS011;30288;50.514;9.678;2023-04-24T01:47:22;6.68;;;1.80;;
29902;SDS011;30288;50.514;9.678;2023-04-24T01:49:28;7.15;;;2.20;;
29902;SDS011;30288;50.514;9.678;2023-04-24T01:51:33;4.53;;;1.60;;
29902;SDS011;30288;50.514;9.678;2023-04-24T01:53:39;7.32;;;1.83;;
29902;SDS011;30288;50.514;9.678;2023-04-24T01:55:46;5.85;;;1.80;;
29902;SDS011;30288;50.514;9.678;2023-04-24T01:57:55;8.27;;;1.50;;
29902;SDS011;30288;50.514;9.678;2023-04-24T02:00:01;2.88;;;1.50;;
29902;SDS011;30288;50.514;9.678;2023-04-24T02:02:14;5.88;;;2.42;;
29902;SDS011;30288;50.514;9.678;2023-04-24T02:04:19;4.60;;;1.25;;
29902;SDS011;30288;50.514;9.678;2023-04-24T02:06:24;9.73;;;2.30;;
29902;SDS011;30288;50.514;9.678;2023-04-24T02:08:29;4.63;;;1.65;;
29902;SDS011;30288;50.514;9.678;2023-04-24T02:10:34;8.70;;;1.65;;
29902;SDS011;30288;50.514;9.678;2023-04-24T02:12:42;5.18;;;1.55;;
29902;SDS011;30288;50.514;9.678;2023-04-24T02:14:47;9.65;;;1.35;;
29902;SDS011;30288;50.514;9.678;2023-04-24T02:16:52;4.82;;;1.40;;
29902;SDS011;30288;50.514;9.678;2023-04-24T02:18:58;3.25;;;1.60;;
29902;SDS011;30288;50.514;9.678;2023-04-24T02:21:03;3.55;;;1.35;;
29902;SDS011;30288;50.514;9.678;2023-04-24T02:23:09;7.53;;;2.22;;
29902;SDS011;30288;50.514;9.678;2023-04-24T02:25:15;5.68;;;1.63;;
29902;SDS011;30288;50.514;9.678;2023-04-24T02:27:20;8.48;;;1.77;;
29902;SDS011;30288;50.514;9.678;2023-04-24T02:29:28;5.55;;;1.65;;
29902;SDS011;30288;50.514;9.678;2023-04-24T02:31:34;5.97;;;1.77;;
29902;SDS011;30288;50.514;9.678;2023-04-24T02:33:40;3.75;;;1.65;;
29902;SDS011;30288;50.514;9.678;2023-04-24T02:35:45;4.60;;;1.60;;
29902;SDS011;30288;50.514;9.678;2023-04-24T02:37:50;5.10;;;1.35;;
29902;SDS011;30288;50.514;9.678;2023-04-24T02:39:56;5.25;;;1.42;;
29902;SDS011;30288;50.514;9.678;2023-04-24T02:42:01;5.05;;;1.38;;
29902;SDS011;30288;50.514;9.678;2023-04-24T02:44:06;7.18;;;1.67;;
29902;SDS011;30288;50.514;9.678;2023-04-24T02:46:14;4.20;;;1.48;;
29902;SDS011;30288;50.514;9.678;2023-04-24T02:48:20;6.80;;;1.70;;
29902;SDS011;30288;50.514;9.678;2023-04-24T02:50:25;6.00;;;1.40;;
29902;SDS011;30288;50.514;9.678;2023-04-24T02:52:31;4.68;;;1.20;;
29902;SDS011;30288;50.514;9.678;2023-04-24T02:54:36;5.28;;;1.42;;
29902;SDS011;30288;50.514;9.678;2023-04-24T02:56:41;4.63;;;1.55;;
29902;SDS011;30288;50.514;9.678;2023-04-24T02:58:46;6.75;;;1.80;;
29902;SDS011;30288;50.514;9.678;2023-04-24T03:00:53;4.43;;;1.50;;
29902;SDS011;30288;50.514;9.678;2023-04-24T03:03:05;4.40;;;1.63;;
29902;SDS011;30288;50.514;9.678;2023-04-24T03:05:10;4.55;;;1.40;;
29902;SDS011;30288;50.514;9.678;2023-04-24T03:07:16;3.05;;;1.45;;
29902;SDS011;30288;50.514;9.678;2023-04-24T03:09:22;3.38;;;1.20;;
29902;SDS011;30288;50.514;9.678;2023-04-24T03:11:27;4.78;;;1.50;;
29902;SDS011;30288;50.514;9.678;2023-04-24T03:13:33;6.20;;;1.60;;
29902;SDS011;30288;50.514;9.678;2023-04-24T03:15:38;4.82;;;1.40;;
29902;SDS011;30288;50.514;9.678;2023-04-24T03:17:43;5.30;;;1.58;;
29902;SDS011;30288;50.514;9.678;2023-04-24T03:19:52;4.50;;;1.70;;
29902;SDS011;30288;50.514;9.678;2023-04-24T03:21:57;2.95;;;1.35;;
29902;SDS011;30288;50.514;9.678;2023-04-24T03:24:03;6.55;;;2.15;;
29902;SDS011;30288;50.514;9.678;2023-04-24T03:26:10;2.85;;;1.35;;
29902;SDS011;30288;50.514;9.678;2023-04-24T03:28:26;3.67;;;1.58;;
29902;SDS011;30288;50.514;9.678;2023-04-24T03:30:34;7.45;;;1.50;;
29902;SDS011;30288;50.514;9.678;2023-04-24T03:32:41;5.03;;;1.30;;
29902;SDS011;30288;50.514;9.678;2023-04-24T03:34:52;5.65;;;1.60;;
29902;SDS011;30288;50.514;9.678;2023-04-24T03:36:58;4.88;;;1.30;;
29902;SDS011;30288;50.514;9.678;2023-04-24T03:39:04;5.60;;;1.50;;
29902;SDS011;30288;50.514;9.678;2023-04-24T03:41:12;2.90;;;1.60;;
29902;SDS011;30288;50.514;9.678;2023-04-24T03:43:22;3.53;;;1.30;;
29902;SDS011;30288;50.514;9.678;2023-04-24T03:45:34;4.93;;;1.38;;
29902;SDS011;30288;50.514;9.678;2023-04-24T03:47:40;8.25;;;1.58;;
29902;SDS011;30288;50.514;9.678;2023-04-24T03:49:46;8.38;;;1.85;;
29902;SDS011;30288;50.514;9.678;2023-04-24T03:51:54;6.45;;;1.58;;
29902;SDS011;30288;50.514;9.678;2023-04-24T03:54:01;4.03;;;1.40;;
29902;SDS011;30288;50.514;9.678;2023-04-24T03:56:10;5.03;;;1.27;;
29902;SDS011;30288;50.514;9.678;2023-04-24T03:58:16;4.18;;;1.27;;
29902;SDS011;30288;50.514;9.678;2023-04-24T04:00:21;4.25;;;1.20;;
29902;SDS011;30288;50.514;9.678;2023-04-24T04:02:43;4.43;;;1.23;;
29902;SDS011;30288;50.514;9.678;2023-04-24T04:04:48;5.93;;;1.80;;
29902;SDS011;30288;50.514;9.678;2023-04-24T04:06:57;3.88;;;1.33;;
29902;SDS011;30288;50.514;9.678;2023-04-24T04:09:05;4.57;;;1.40;;
29902;SDS011;30288;50.514;9.678;2023-04-24T04:11:10;4.55;;;1.42;;
29902;SDS011;30288;50.514;9.678;2023-04-24T04:13:16;5.32;;;1.38;;
29902;SDS011;30288;50.514;9.678;2023-04-24T04:15:21;5.05;;;1.30;;
29902;SDS011;30288;50.514;9.678;2023-04-24T04:17:26;5.47;;;1.55;;
29902;SDS011;30288;50.514;9.678;2023-04-24T04:19:33;2.45;;;1.17;;
29902;SDS011;30288;50.514;9.678;2023-04-24T04:21:38;2.85;;;1.50;;
29902;SDS011;30288;50.514;9.678;2023-04-24T04:23:55;6.18;;;1.80;;
29902;SDS011;30288;50.514;9.678;2023-04-24T04:26:06;6.03;;;1.40;;
29902;SDS011;30288;50.514;9.678;2023-04-24T04:28:24;4.60;;;1.33;;
29902;SDS011;30288;50.514;9.678;2023-04-24T04:30:30;4.40;;;1.42;;
29902;SDS011;30288;50.514;9.678;2023-04-24T04:32:37;7.90;;;2.08;;
29902;SDS011;30288;50.514;9.678;2023-04-24T04:34:43;3.75;;;1.50;;
29902;SDS011;30288;50.514;9.678;2023-04-24T04:36:51;4.40;;;1.50;;
29902;SDS011;30288;50.514;9.678;2023-04-24T04:39:11;4.13;;;1.45;;
29902;SDS011;30288;50.514;9.678;2023-04-24T04:41:29;3.88;;;1.50;;
29902;SDS011;30288;50.514;9.678;2023-04-24T04:43:37;8.30;;;2.05;;
29902;SDS011;30288;50.514;9.678;2023-04-24T04:45:44;5.13;;;1.55;;
29902;SDS011;30288;50.514;9.678;2023-04-24T04:47:59;5.82;;;1.83;;
29902;SDS011;30288;50.514;9.678;2023-04-24T04:50:06;9.13;;;1.92;;
29902;SDS011;30288;50.514;9.678;2023-04-24T04:52:12;5.82;;;1.88;;
29902;SDS011;30288;50.514;9.678;2023-04-24T04:54:24;5.57;;;1.70;;
29902;SDS011;30288;50.514;9.678;2023-04-24T04:56:31;6.88;;;2.15;;
29902;SDS011;30288;50.514;9.678;2023-04-24T04:58:37;5.75;;;2.00;;
29902;SDS011;30288;50.514;9.678;2023-04-24T05:00:46;4.28;;;1.60;;
29902;SDS011;30288;50.514;9.678;2023-04-24T05:03:11;7.38;;;1.90;;
29902;SDS011;30288;50.514;9.678;2023-04-24T05:05:27;2.35;;;1.60;;
29902;SDS011;30288;50.514;9.678;2023-04-24T05:07:33;7.25;;;2.55;;
29902;SDS011;30288;50.514;9.678;2023-04-24T05:09:41;4.82;;;2.00;;
29902;SDS011;30288;50.514;9.678;2023-04-24T05:11:47;3.35;;;1.80;;
29902;SDS011;30288;50.514;9.678;2023-04-24T05:13:56;8.40;;;2.50;;
29902;SDS011;30288;50.514;9.678;2023-04-24T05:16:09;8.02;;;3.22;;
29902;SDS011;30288;50.514;9.678;2023-04-24T05:18:15;4.15;;;2.00;;
29902;SDS011;30288;50.514;9.678;2023-04-24T05:20:21;5.10;;;1.90;;
29902;SDS011;30288;50.514;9.678;2023-04-24T05:22:28;9.52;;;2.22;;
29902;SDS011;30288;50.514;9.678;2023-04-24T05:24:33;4.97;;;2.03;;
29902;SDS011;30288;50.514;9.678;2023-04-24T05:26:56;11.02;;;3.40;;
29902;SDS011;30288;50.514;9.678;2023-04-24T05:29:08;5.70;;;2.15;;
29902;SDS011;30288;50.514;9.678;2023-04-24T05:31:13;6.82;;;1.88;;
29902;SDS011;30288;50.514;9.678;2023-04-24T05:33:19;5.32;;;2.30;;
29902;SDS011;30288;50.514;9.678;2023-04-24T05:35:25;9.88;;;2.67;;
29902;SDS011;30288;50.514;9.678;2023-04-24T05:37:30;6.82;;;2.88;;
29902;SDS011;30288;50.514;9.678;2023-04-24T05:39:35;3.33;;;1.70;;
29902;SDS011;30288;50.514;9.678;2023-04-24T05:41:43;5.85;;;1.80;;
29902;SDS011;30288;50.514;9.678;2023-04-24T05:43:51;3.80;;;1.60;;
29902;SDS011;30288;50.514;9.678;2023-04-24T05:45:57;6.13;;;2.22;;
29902;SDS011;30288;50.514;9.678;2023-04-24T05:48:02;4.90;;;1.80;;
29902;SDS011;30288;50.514;9.678;2023-04-24T05:50:08;4.60;;;2.10;;
29902;SDS011;30288;50.514;9.678;2023-04-24T05:52:14;3.85;;;1.70;;
29902;SDS011;30288;50.514;9.678;2023-04-24T05:54:19;5.95;;;3.38;;
29902;SDS011;30288;50.514;9.678;2023-04-24T05:56:26;7.00;;;2.10;;
29902;SDS011;30288;50.514;9.678;2023-04-24T05:58:34;2.80;;;1.67;;
29902;SDS011;30288;50.514;9.678;2023-04-24T06:00:42;4.53;;;1.60;;
29902;SDS011;30288;50.514;9.678;2023-04-24T06:02:48;4.45;;;1.50;;
29902;SDS011;30288;50.514;9.678;2023-04-24T06:04:55;4.40;;;1.80;;
29902;SDS011;30288;50.514;9.678;2023-04-24T06:07:01;4.70;;;1.55;;
29902;SDS011;30288;50.514;9.678;2023-04-24T06:09:08;5.55;;;1.90;;
29902;SDS011;30288;50.514;9.678;2023-04-24T06:11:16;6.38;;;1.90;;
29902;SDS011;30288;50.514;9.678;2023-04-24T06:13:22;5.28;;;1.65;;
29902;SDS011;30288;50.514;9.678;2023-04-24T06:15:49;6.07;;;1.65;;
29902;SDS011;30288;50.514;9.678;2023-04-24T06:18:03;3.78;;;1.75;;
29902;SDS011;30288;50.514;9.678;2023-04-24T06:20:10;3.78;;;1.60;;
29902;SDS011;30288;50.514;9.678;2023-04-24T06:22:16;4.78;;;1.73;;
29902;SDS011;30288;50.514;9.678;2023-04-24T06:24:24;5.85;;;1.75;;
29902;SDS011;30288;50.514;9.678;2023-04-24T06:26:32;4.90;;;1.90;;
29902;SDS011;30288;50.514;9.678;2023-04-24T06:28:38;3.83;;;1.40;;
29902;SDS011;30288;50.514;9.678;2023-04-24T06:30:44;5.07;;;1.60;;
29902;SDS011;30288;50.514;9.678;2023-04-24T06:32:52;4.00;;;1.70;;
29902;SDS011;30288;50.514;9.678;2023-04-24T06:35:13;6.28;;;1.40;;
29902;SDS011;30288;50.514;9.678;2023-04-24T06:37:19;5.30;;;1.95;;
29902;SDS011;30288;50.514;9.678;2023-04-24T06:39:25;4.95;;;1.90;;
29902;SDS011;30288;50.514;9.678;2023-04-24T06:41:30;4.40;;;1.58;;
29902;SDS011;30288;50.514;9.678;2023-04-24T06:43:36;3.92;;;1.73;;
29902;SDS011;30288;50.514;9.678;2023-04-24T06:45:41;4.68;;;2.20;;
29902;SDS011;30288;50.514;9.678;2023-04-24T06:47:54;3.13;;;1.38;;
29902;SDS011;30288;50.514;9.678;2023-04-24T06:50:01;4.07;;;1.70;;
29902;SDS011;30288;50.514;9.678;2023-04-24T06:52:07;7.75;;;1.80;;
29902;SDS011;30288;50.514;9.678;2023-04-24T06:54:12;3.13;;;1.50;;
29902;SDS011;30288;50.514;9.678;2023-04-24T06:56:17;2.53;;;1.40;;
29902;SDS011;30288;50.514;9.678;2023-04-24T06:58:23;7.68;;;1.80;;
29902;SDS011;30288;50.514;9.678;2023-04-24T07:00:29;4.65;;;1.73;;
29902;SDS011;30288;50.514;9.678;2023-04-24T07:02:34;2.53;;;1.50;;
29902;SDS011;30288;50.514;9.678;2023-04-24T07:04:42;4.88;;;1.40;;
29902;SDS011;30288;50.514;9.678;2023-04-24T07:06:48;3.65;;;1.67;;
29902;SDS011;30288;50.514;9.678;2023-04-24T07:08:55;3.15;;;1.50;;
29902;SDS011;30288;50.514;9.678;2023-04-24T07:11:01;5.22;;;1.40;;
29902;SDS011;30288;50.514;9.678;2023-04-24T07:13:07;4.13;;;1.67;;
29902;SDS011;30288;50.514;9.678;2023-04-24T07:15:12;3.28;;;1.30;;
29902;SDS011;30288;50.514;9.678;2023-04-24T07:17:17;4.60;;;1.45;;
29902;SDS011;30288;50.514;9.678;2023-04-24T07:19:22;4.78;;;2.20;;
29902;SDS011;30288;50.514;9.678;2023-04-24T07:21:30;5.30;;;1.75;;
29902;SDS011;30288;50.514;9.678;2023-04-24T07:23:36;3.45;;;1.73;;
29902;SDS011;30288;50.514;9.678;2023-04-24T07:25:42;4.47;;;1.50;;
29902;SDS011;30288;50.514;9.678;2023-04-24T07:27:48;5.18;;;1.70;;
29902;SDS011;30288;50.514;9.678;2023-04-24T07:29:53;3.38;;;1.50;;
29902;SDS011;30288;50.514;9.678;2023-04-24T07:31:58;6.30;;;1.85;;
29902;SDS011;30288;50.514;9.678;2023-04-24T07:34:04;4.22;;;1.60;;
29902;SDS011;30288;50.514;9.678;2023-04-24T07:36:09;4.35;;;1.65;;
29902;SDS011;30288;50.514;9.678;2023-04-24T07:38:21;3.78;;;1.40;;
29902;SDS011;30288;50.514;9.678;2023-04-24T07:40:27;5.80;;;1.70;;
29902;SDS011;30288;50.514;9.678;2023-04-24T07:42:33;3.45;;;1.70;;
29902;SDS011;30288;50.514;9.678;2023-04-24T07:44:38;5.85;;;1.95;;
29902;SDS011;30288;50.514;9.678;2023-04-24T07:46:43;3.47;;;1.75;;
29902;SDS011;30288;50.514;9.678;2023-04-24T07:48:49;3.88;;;2.10;;
29902;SDS011;30288;50.514;9.678;2023-04-24T07:51:12;6.82;;;2.42;;
29902;SDS011;30288;50.514;9.678;2023-04-24T07:53:17;5.85;;;2.88;;
29902;SDS011;30288;50.514;9.678;2023-04-24T07:55:25;8.07;;;3.08;;
29902;SDS011;30288;50.514;9.678;2023-04-24T07:57:30;5.65;;;3.13;;
29902;SDS011;30288;50.514;9.678;2023-04-24T07:59:36;7.80;;;2.60;;
29902;SDS011;30288;50.514;9.678;2023-04-24T08:01:41;7.88;;;3.03;;
29902;SDS011;30288;50.514;9.678;2023-04-24T08:03:46;8.48;;;3.15;;
29902;SDS011;30288;50.514;9.678;2023-04-24T08:05:52;8.55;;;3.42;;
29902;SDS011;30288;50.514;9.678;2023-04-24T08:07:57;6.50;;;3.05;;
29902;SDS011;30288;50.514;9.678;2023-04-24T08:10:06;6.47;;;2.90;;
29902;SDS011;30288;50.514;9.678;2023-04-24T08:12:15;6.40;;;3.20;;
29902;SDS011;30288;50.514;9.678;2023-04-24T08:14:20;8.52;;;3.10;;
29902;SDS011;30288;50.514;9.678;2023-04-24T08:16:25;6.18;;;2.95;;
29902;SDS011;30288;50.514;9.678;2023-04-24T08:18:30;6.97;;;2.90;;
29902;SDS011;30288;50.514;9.678;2023-04-24T08:20:37;5.40;;;3.15;;
29902;SDS011;30288;50.514;9.678;2023-04-24T08:22:43;5.70;;;3.30;;
29902;SDS011;30288;50.514;9.678;2023-04-24T08:24:49;7.05;;;3.28;;
29902;SDS011;30288;50.514;9.678;2023-04-24T08:26:56;7.45;;;3.40;;
29902;SDS011;30288;50.514;9.678;2023-04-24T08:29:02;6.50;;;3.40;;
29902;SDS011;30288;50.514;9.678;2023-04-24T08:31:08;5.28;;;2.70;;
29902;SDS011;30288;50.514;9.678;2023-04-24T08:33:13;6.07;;;3.30;;
29902;SDS011;30288;50.514;9.678;2023-04-24T08:35:19;7.00;;;3.03;;
29902;SDS011;30288;50.514;9.678;2023-04-24T08:37:25;7.03;;;3.30;;
29902;SDS011;30288;50.514;9.678;2023-04-24T08:39:31;7.95;;;3.63;;
29902;SDS011;30288;50.514;9.678;2023-04-24T08:41:36;6.18;;;3.15;;
29902;SDS011;30288;50.514;9.678;2023-04-24T08:43:48;6.00;;;3.05;;
29902;SDS011;30288;50.514;9.678;2023-04-24T08:45:55;8.45;;;3.40;;
29902;SDS011;30288;50.514;9.678;2023-04-24T08:48:01;7.03;;;3.00;;
29902;SDS011;30288;50.514;9.678;2023-04-24T08:50:24;4.82;;;2.60;;
29902;SDS011;30288;50.514;9.678;2023-04-24T08:52:29;5.30;;;2.70;;
29902;SDS011;30288;50.514;9.678;2023-04-24T08:54:35;6.15;;;2.47;;
29902;SDS011;30288;50.514;9.678;2023-04-24T08:56:40;4.50;;;2.30;;
29902;SDS011;30288;50.514;9.678;2023-04-24T08:58:51;8.00;;;2.80;;
29902;SDS011;30288;50.514;9.678;2023-04-24T09:00:58;13.02;;;2.60;;
29902;SDS011;30288;50.514;9.678;2023-04-24T09:03:03;4.57;;;2.38;;
29902;SDS011;30288;50.514;9.678;2023-04-24T09:05:10;7.35;;;3.05;;
29902;SDS011;30288;50.514;9.678;2023-04-24T09:07:17;4.75;;;2.53;;
29902;SDS011;30288;50.514;9.678;2023-04-24T09:09:23;5.72;;;1.98;;
29902;SDS011;30288;50.514;9.678;2023-04-24T09:11:29;5.78;;;2.40;;
29902;SDS011;30288;50.514;9.678;2023-04-24T09:13:35;4.53;;;2.17;;
29902;SDS011;30288;50.514;9.678;2023-04-24T09:15:44;4.13;;;2.42;;
29902;SDS011;30288;50.514;9.678;2023-04-24T09:17:49;7.25;;;2.30;;
29902;SDS011;30288;50.514;9.678;2023-04-24T09:19:54;4.78;;;2.22;;
29902;SDS011;30288;50.514;9.678;2023-04-24T09:21:59;7.18;;;2.40;;
29902;SDS011;30288;50.514;9.678;2023-04-24T09:24:14;5.15;;;2.35;;
29902;SDS011;30288;50.514;9.678;2023-04-24T09:26:23;5.07;;;2.13;;
29902;SDS011;30288;50.514;9.678;2023-04-24T09:28:29;5.10;;;2.13;;
29902;SDS011;30288;50.514;9.678;2023-04-24T09:30:36;4.65;;;2.15;;
29902;SDS011;30288;50.514;9.678;2023-04-24T09:32:44;3.10;;;1.70;;
29902;SDS011;30288;50.514;9.678;2023-04-24T09:34:49;5.45;;;1.85;;
29902;SDS011;30288;50.514;9.678;2023-04-24T09:37:09;5.03;;;2.10;;
29902;SDS011;30288;50.514;9.678;2023-04-24T09:39:15;4.95;;;2.28;;
29902;SDS011;30288;50.514;9.678;2023-04-24T09:41:21;4.60;;;2.20;;
29902;SDS011;30288;50.514;9.678;2023-04-24T09:43:26;4.68;;;2.42;;
29902;SDS011;30288;50.514;9.678;2023-04-24T09:45:35;6.50;;;1.95;;
29902;SDS011;30288;50.514;9.678;2023-04-24T09:47:43;4.47;;;2.45;;
29902;SDS011;30288;50.514;9.678;2023-04-24T09:49:49;5.70;;;2.28;;
29902;SDS011;30288;50.514;9.678;2023-04-24T09:52:01;5.95;;;2.22;;
29902;SDS011;30288;50.514;9.678;2023-04-24T09:54:13;3.50;;;2.13;;
29902;SDS011;30288;50.514;9.678;2023-04-24T09:58:26;5.50;;;2.38;;
29902;SDS011;30288;50.514;9.678;2023-04-24T10:00:32;4.18;;;1.80;;
29902;SDS011;30288;50.514;9.678;2023-04-24T10:02:38;3.90;;;1.73;;
29902;SDS011;30288;50.514;9.678;2023-04-24T10:04:53;5.47;;;2.40;;
29902;SDS011;30288;50.514;9.678;2023-04-24T10:07:02;3.42;;;1.90;;
29902;SDS011;30288;50.514;9.678;2023-04-24T10:09:10;3.83;;;1.77;;
29902;SDS011;30288;50.514;9.678;2023-04-24T10:11:16;7.53;;;2.33;;
29902;SDS011;30288;50.514;9.678;2023-04-24T10:13:21;6.00;;;2.40;;
29902;SDS011;30288;50.514;9.678;2023-04-24T10:15:27;4.65;;;2.35;;
29902;SDS011;30288;50.514;9.678;2023-04-24T10:17:32;5.90;;;3.03;;
29902;SDS011;30288;50.514;9.678;2023-04-24T10:19:39;4.47;;;2.20;;
29902;SDS011;30288;50.514;9.678;2023-04-24T10:21:49;4.70;;;2.13;;
29902;SDS011;30288;50.514;9.678;2023-04-24T10:23:54;4.60;;;2.45;;
29902;SDS011;30288;50.514;9.678;2023-04-24T10:26:01;5.15;;;2.30;;
29902;SDS011;30288;50.514;9.678;2023-04-24T10:28:07;4.20;;;2.50;;
29902;SDS011;30288;50.514;9.678;2023-04-24T10:30:14;5.05;;;2.67;;
29902;SDS011;30288;50.514;9.678;2023-04-24T10:32:20;5.45;;;2.50;;
29902;SDS011;30288;50.514;9.678;2023-04-24T10:34:25;4.40;;;2.40;;
29902;SDS011;30288;50.514;9.678;2023-04-24T10:36:31;4.78;;;2.15;;
29902;SDS011;30288;50.514;9.678;2023-04-24T10:38:41;5.22;;;2.72;;
29902;SDS011;30288;50.514;9.678;2023-04-24T10:40:47;5.30;;;2.60;;
29902;SDS011;30288;50.514;9.678;2023-04-24T10:42:52;5.30;;;2.08;;
29902;SDS011;30288;50.514;9.678;2023-04-24T10:44:59;4.85;;;1.90;;
29902;SDS011;30288;50.514;9.678;2023-04-24T10:47:12;6.18;;;2.10;;
29902;SDS011;30288;50.514;9.678;2023-04-24T10:49:19;8.95;;;2.45;;
29902;SDS011;30288;50.514;9.678;2023-04-24T10:51:45;6.07;;;2.33;;
29902;SDS011;30288;50.514;9.678;2023-04-24T10:53:55;4.38;;;2.38;;
29902;SDS011;30288;50.514;9.678;2023-04-24T10:56:05;4.00;;;1.85;;
29902;SDS011;30288;50.514;9.678;2023-04-24T10:58:14;5.57;;;1.88;;
29902;SDS011;30288;50.514;9.678;2023-04-24T11:00:21;4.25;;;2.35;;
29902;SDS011;30288;50.514;9.678;2023-04-24T11:02:35;4.45;;;2.30;;
29902;SDS011;30288;50.514;9.678;2023-04-24T11:04:45;5.90;;;2.78;;
29902;SDS011;30288;50.514;9.678;2023-04-24T11:06:51;6.82;;;2.33;;
29902;SDS011;30288;50.514;9.678;2023-04-24T11:09:01;3.40;;;2.03;;
29902;SDS011;30288;50.514;9.678;2023-04-24T11:11:09;4.97;;;2.40;;
29902;SDS011;30288;50.514;9.678;2023-04-24T11:13:16;4.40;;;2.10;;
29902;SDS011;30288;50.514;9.678;2023-04-24T11:15:25;5.65;;;2.10;;
29902;SDS011;30288;50.514;9.678;2023-04-24T11:17:31;4.95;;;2.00;;
29902;SDS011;30288;50.514;9.678;2023-04-24T11:19:41;6.80;;;2.60;;
29902;SDS011;30288;50.514;9.678;2023-04-24T11:21:47;6.43;;;1.95;;
29902;SDS011;30288;50.514;9.678;2023-04-24T11:23:57;3.40;;;1.80;;
29902;SDS011;30288;50.514;9.678;2023-04-24T11:26:21;5.38;;;1.90;;
29902;SDS011;30288;50.514;9.678;2023-04-24T11:28:31;3.92;;;1.88;;
29902;SDS011;30288;50.514;9.678;2023-04-24T11:30:37;3.70;;;2.03;;
29902;SDS011;30288;50.514;9.678;2023-04-24T11:32:47;4.18;;;1.80;;
29902;SDS011;30288;50.514;9.678;2023-04-24T11:34:55;7.00;;;2.03;;
29902;SDS011;30288;50.514;9.678;2023-04-24T11:37:02;5.40;;;1.80;;
29902;SDS011;30288;50.514;9.678;2023-04-24T11:39:10;3.33;;;1.80;;
29902;SDS011;30288;50.514;9.678;2023-04-24T11:41:16;6.18;;;2.05;;
29902;SDS011;30288;50.514;9.678;2023-04-24T11:43:22;3.95;;;1.70;;
29902;SDS011;30288;50.514;9.678;2023-04-24T11:45:28;5.32;;;1.80;;
29902;SDS011;30288;50.514;9.678;2023-04-24T11:47:35;5.68;;;1.67;;
29902;SDS011;30288;50.514;9.678;2023-04-24T11:49:40;3.95;;;1.45;;
29902;SDS011;30288;50.514;9.678;2023-04-24T11:51:45;7.30;;;2.00;;
29902;SDS011;30288;50.514;9.678;2023-04-24T11:53:55;3.03;;;1.42;;
29902;SDS011;30288;50.514;9.678;2023-04-24T11:56:07;4.10;;;1.40;;
29902;SDS011;30288;50.514;9.678;2023-04-24T11:58:13;5.03;;;2.25;;
29902;SDS011;30288;50.514;9.678;2023-04-24T12:00:19;6.15;;;2.97;;
29902;SDS011;30288;50.514;9.678;2023-04-24T12:02:26;7.00;;;2.72;;
29902;SDS011;30288;50.514;9.678;2023-04-24T12:04:38;7.45;;;2.78;;
29902;SDS011;30288;50.514;9.678;2023-04-24T12:09:06;5.03;;;2.60;;
29902;SDS011;30288;50.514;9.678;2023-04-24T12:11:21;6.70;;;3.03;;
29902;SDS011;30288;50.514;9.678;2023-04-24T12:13:27;9.77;;;3.20;;
29902;SDS011;30288;50.514;9.678;2023-04-24T12:15:32;3.00;;;1.65;;
29902;SDS011;30288;50.514;9.678;2023-04-24T12:17:40;5.97;;;1.90;;
29902;SDS011;30288;50.514;9.678;2023-04-24T12:19:46;2.92;;;1.50;;
29902;SDS011;30288;50.514;9.678;2023-04-24T12:21:59;3.65;;;1.58;;
29902;SDS011;30288;50.514;9.678;2023-04-24T12:24:06;2.63;;;1.27;;
29902;SDS011;30288;50.514;9.678;2023-04-24T12:26:11;2.03;;;1.00;;
29902;SDS011;30288;50.514;9.678;2023-04-24T12:28:22;2.38;;;1.17;;
29902;SDS011;30288;50.514;9.678;2023-04-24T12:30:27;3.33;;;1.45;;
29902;SDS011;30288;50.514;9.678;2023-04-24T12:32:33;1.48;;;0.90;;
29902;SDS011;30288;50.514;9.678;2023-04-24T12:34:39;1.27;;;0.60;;
29902;SDS011;30288;50.514;9.678;2023-04-24T12:36:44;2.03;;;0.82;;
29902;SDS011;30288;50.514;9.678;2023-04-24T12:38:52;2.92;;;0.77;;
29902;SDS011;30288;50.514;9.678;2023-04-24T12:41:01;2.22;;;0.65;;
29902;SDS011;30288;50.514;9.678;2023-04-24T12:43:14;0.73;;;0.68;;
29902;SDS011;30288;50.514;9.678;2023-04-24T12:45:23;7.72;;;0.90;;
29902;SDS011;30288;50.514;9.678;2023-04-24T12:47:30;2.33;;;0.75;;
29902;SDS011;30288;50.514;9.678;2023-04-24T12:49:36;1.88;;;0.73;;
29902;SDS011;30288;50.514;9.678;2023-04-24T12:51:41;2.53;;;0.75;;
29902;SDS011;30288;50.514;9.678;2023-04-24T12:53:46;1.00;;;0.60;;